sensor_id;sensor_type;location;lat;lon;timestamp;pressure;altitude;pressure_sealevel;temperature;humidity
70127;BME280;57491;42.694;23.314;2023-04-26T00:02:22;94214.44;;;12.42;70.88
70127;BME280;57491;42.694;23.314;2023-04-26T00:04:50;94206.44;;;12.37;70.64
70127;BME280;57491;42.694;23.314;2023-04-26T00:07:29;94209.44;;;12.40;70.32
70127;BME280;57491;42.694;23.314;2023-04-26T00:09:57;94183.66;;;12.26;70.91
70127;BME280;57491;42.694;23.314;2023-04-26T00:12:24;94191.06;;;12.29;70.02
70127;BME280;57491;42.694;23.314;2023-04-26T00:14:53;94196.84;;;12.31;71.53
70127;BME280;57491;42.694;23.314;2023-04-26T00:17:22;94185.69;;;12.24;70.49
70127;BME280;57491;42.694;23.314;2023-04-26T00:19:50;94182.03;;;12.25;71.49
70127;BME280;57491;42.694;23.314;2023-04-26T00:22:17;94180.13;;;12.14;70.83
70127;BME280;57491;42.694;23.314;2023-04-26T00:24:45;94182.13;;;12.12;71.73
70127;BME280;57491;42.694;23.314;2023-04-26T00:27:12;94181.38;;;12.11;71.83
70127;BME280;57491;42.694;23.314;2023-04-26T00:29:40;94181.94;;;12.13;71.29
70127;BME280;57491;42.694;23.314;2023-04-26T00:32:09;94183.38;;;12.02;71.04
70127;BME280;57491;42.694;23.314;2023-04-26T00:34:40;94174.63;;;11.97;72.09
70127;BME280;57491;42.694;23.314;2023-04-26T00:37:07;94173.03;;;11.89;72.11
70127;BME280;57491;42.694;23.314;2023-04-26T00:39:37;94175.03;;;11.94;72.22
70127;BME280;57491;42.694;23.314;2023-04-26T00:42:05;94167.63;;;11.91;72.48
70127;BME280;57491;42.694;23.314;2023-04-26T00:44:35;94173.66;;;11.91;72.27
70127;BME280;57491;42.694;23.314;2023-04-26T00:47:05;94172.03;;;11.90;72.83
70127;BME280;57491;42.694;23.314;2023-04-26T00:49:34;94169.88;;;11.87;72.85
70127;BME280;57491;42.694;23.314;2023-04-26T00:52:02;94161.91;;;11.76;72.52
70127;BME280;57491;42.694;23.314;2023-04-26T00:54:32;94177.50;;;11.82;73.75
70127;BME280;57491;42.694;23.314;2023-04-26T00:56:59;94180.91;;;11.76;73.40
70127;BME280;57491;42.694;23.314;2023-04-26T00:59:26;94176.31;;;11.78;73.21
70127;BME280;57491;42.694;23.314;2023-04-26T01:01:54;94182.28;;;11.85;73.54
70127;BME280;57491;42.694;23.314;2023-04-26T01:04:22;94183.28;;;11.84;73.24
70127;BME280;57491;42.694;23.314;2023-04-26T01:06:54;94174.13;;;11.75;72.99
70127;BME280;57491;42.694;23.314;2023-04-26T01:09:23;94188.72;;;11.83;73.38
70127;BME280;57491;42.694;23.314;2023-04-26T01:11:54;94185.50;;;11.87;73.22
70127;BME280;57491;42.694;23.314;2023-04-26T01:14:23;94192.75;;;11.79;73.15
70127;BME280;57491;42.694;23.314;2023-04-26T01:16:52;94191.75;;;11.73;72.80
70127;BME280;57491;42.694;23.314;2023-04-26T01:19:20;94196.16;;;11.79;73.08
70127;BME280;57491;42.694;23.314;2023-04-26T01:21:47;94182.53;;;11.71;73.15
70127;BME280;57491;42.694;23.314;2023-04-26T01:24:20;94170.28;;;11.71;73.65
70127;BME280;57491;42.694;23.314;2023-04-26T01:26:48;94168.31;;;11.73;73.74
70127;BME280;57491;42.694;23.314;2023-04-26T01:29:17;94165.09;;;11.71;73.77
70127;BME280;57491;42.694;23.314;2023-04-26T01:31:45;94161.91;;;11.69;73.39
70127;BME280;57491;42.694;23.314;2023-04-26T01:34:16;94168.31;;;11.73;73.88
70127;BME280;57491;42.694;23.314;2023-04-26T01:36:45;94167.94;;;11.63;73.42
70127;BME280;57491;42.694;23.314;2023-04-26T01:39:19;94178.75;;;11.73;74.50
70127;BME280;57491;42.694;23.314;2023-04-26T01:41:47;94167.53;;;11.73;74.80
70127;BME280;57491;42.694;23.314;2023-04-26T01:44:22;94166.72;;;11.72;73.79
70127;BME280;57491;42.694;23.314;2023-04-26T01:46:51;94179.75;;;11.66;72.89
70127;BME280;57491;42.694;23.314;2023-04-26T01:49:18;94190.00;;;11.60;72.71
70127;BME280;57491;42.694;23.314;2023-04-26T01:51:51;94183.78;;;11.55;72.50
70127;BME280;57491;42.694;23.314;2023-04-26T01:54:26;94168.81;;;11.44;73.08
70127;BME280;57491;42.694;23.314;2023-04-26T01:57:01;94179.81;;;11.52;72.76
70127;BME280;57491;42.694;23.314;2023-04-26T01:59:34;94174.59;;;11.52;73.58
70127;BME280;57491;42.694;23.314;2023-04-26T02:02:02;94171.97;;;11.59;74.43
70127;BME280;57491;42.694;23.314;2023-04-26T02:04:30;94175.75;;;11.63;75.24
70127;BME280;57491;42.694;23.314;2023-04-26T02:06:57;94158.75;;;11.60;73.70
70127;BME280;57491;42.694;23.314;2023-04-26T02:09:29;94161.34;;;11.60;73.12
70127;BME280;57491;42.694;23.314;2023-04-26T02:11:57;94164.13;;;11.66;73.47
70127;BME280;57491;42.694;23.314;2023-04-26T02:14:24;94150.75;;;11.55;73.29
70127;BME280;57491;42.694;23.314;2023-04-26T02:16:52;94148.09;;;11.62;72.62
70127;BME280;57491;42.694;23.314;2023-04-26T02:19:20;94155.53;;;11.65;72.17
70127;BME280;57491;42.694;23.314;2023-04-26T02:21:53;94148.50;;;11.66;71.20
70127;BME280;57491;42.694;23.314;2023-04-26T02:24:26;94141.31;;;11.61;72.22
70127;BME280;57491;42.694;23.314;2023-04-26T02:26:53;94136.13;;;11.54;72.01
70127;BME280;57491;42.694;23.314;2023-04-26T02:29:25;94137.56;;;11.50;72.02
70127;BME280;57491;42.694;23.314;2023-04-26T02:31:52;94152.13;;;11.58;71.87
70127;BME280;57491;42.694;23.314;2023-04-26T02:34:20;94152.94;;;11.58;71.64
70127;BME280;57491;42.694;23.314;2023-04-26T02:36:47;94156.53;;;11.57;72.64
70127;BME280;57491;42.694;23.314;2023-04-26T02:39:15;94163.53;;;11.63;72.98
70127;BME280;57491;42.694;23.314;2023-04-26T02:41:44;94164.34;;;11.64;71.83
70127;BME280;57491;42.694;23.314;2023-04-26T02:44:14;94163.28;;;11.72;72.51
70127;BME280;57491;42.694;23.314;2023-04-26T02:46:41;94161.50;;;11.72;72.74
70127;BME280;57491;42.694;23.314;2023-04-26T02:49:12;94164.72;;;11.68;70.93
70127;BME280;57491;42.694;23.314;2023-04-26T02:51:40;94134.97;;;11.44;71.37
70127;BME280;57491;42.694;23.314;2023-04-26T02:54:07;94150.00;;;11.42;71.31
70127;BME280;57491;42.694;23.314;2023-04-26T02:56:35;94140.41;;;11.36;71.25
70127;BME280;57491;42.694;23.314;2023-04-26T02:59:07;94144.81;;;11.42;70.94
70127;BME280;57491;42.694;23.314;2023-04-26T03:01:34;94142.16;;;11.48;70.79
70127;BME280;57491;42.694;23.314;2023-04-26T03:04:01;94142.16;;;11.48;70.74
70127;BME280;57491;42.694;23.314;2023-04-26T03:06:29;94143.56;;;11.51;70.15
70127;BME280;57491;42.694;23.314;2023-04-26T03:08:56;94142.16;;;11.55;70.64
70127;BME280;57491;42.694;23.314;2023-04-26T03:11:24;94144.31;;;11.58;71.12
70127;BME280;57491;42.694;23.314;2023-04-26T03:13:51;94147.09;;;11.63;70.75
70127;BME280;57491;42.694;23.314;2023-04-26T03:16:21;94152.31;;;11.63;70.27
70127;BME280;57491;42.694;23.314;2023-04-26T03:18:50;94145.50;;;11.62;70.36
70127;BME280;57491;42.694;23.314;2023-04-26T03:21:22;94144.31;;;11.58;69.52
70127;BME280;57491;42.694;23.314;2023-04-26T03:23:49;94145.34;;;11.57;69.92
70127;BME280;57491;42.694;23.314;2023-04-26T03:26:34;94135.09;;;11.62;69.01
70127;BME280;57491;42.694;23.314;2023-04-26T03:29:07;94137.53;;;11.57;69.73
70127;BME280;57491;42.694;23.314;2023-04-26T03:31:37;94145.94;;;11.59;70.05
70127;BME280;57491;42.694;23.314;2023-04-26T03:34:05;94142.91;;;11.62;69.13
70127;BME280;57491;42.694;23.314;2023-04-26T03:36:35;94145.50;;;11.62;68.52
70127;BME280;57491;42.694;23.314;2023-04-26T03:39:03;94140.16;;;11.57;67.82
70127;BME280;57491;42.694;23.314;2023-04-26T03:41:36;94141.94;;;11.56;68.00
70127;BME280;57491;42.694;23.314;2023-04-26T03:44:05;94149.53;;;11.58;67.36
70127;BME280;57491;42.694;23.314;2023-04-26T03:46:32;94154.78;;;11.45;66.97
70127;BME280;57491;42.694;23.314;2023-04-26T03:49:01;94153.03;;;11.39;67.81
70127;BME280;57491;42.694;23.314;2023-04-26T03:51:28;94165.84;;;11.34;68.27
70127;BME280;57491;42.694;23.314;2023-04-26T03:53:57;94165.28;;;11.25;68.33
70127;BME280;57491;42.694;23.314;2023-04-26T03:56:25;94172.63;;;11.35;70.59
70127;BME280;57491;42.694;23.314;2023-04-26T03:58:52;94166.19;;;11.44;68.36
70127;BME280;57491;42.694;23.314;2023-04-26T04:01:20;94166.78;;;11.52;68.51
70127;BME280;57491;42.694;23.314;2023-04-26T04:03:47;94163.97;;;11.54;68.57
70127;BME280;57491;42.694;23.314;2023-04-26T04:06:16;94173.38;;;11.55;68.21
70127;BME280;57491;42.694;23.314;2023-04-26T04:08:44;94174.00;;;11.50;68.26
70127;BME280;57491;42.694;23.314;2023-04-26T04:11:11;94170.16;;;11.53;69.29
70127;BME280;57491;42.694;23.314;2023-04-26T04:13:38;94174.38;;;11.60;69.04
70127;BME280;57491;42.694;23.314;2023-04-26T04:16:06;94180.38;;;11.61;67.45
70127;BME280;57491;42.694;23.314;2023-04-26T04:18:35;94187.16;;;11.69;69.05
70127;BME280;57491;42.694;23.314;2023-04-26T04:21:02;94186.72;;;11.72;68.74
70127;BME280;57491;42.694;23.314;2023-04-26T04:23:31;94179.50;;;11.80;67.32
70127;BME280;57491;42.694;23.314;2023-04-26T04:25:58;94187.31;;;11.80;67.39
70127;BME280;57491;42.694;23.314;2023-04-26T04:28:25;94192.94;;;11.77;66.94
70127;BME280;57491;42.694;23.314;2023-04-26T04:30:54;94184.94;;;11.72;67.35
70127;BME280;57491;42.694;23.314;2023-04-26T04:33:22;94183.34;;;11.78;67.47
70127;BME280;57491;42.694;23.314;2023-04-26T04:35:50;94190.34;;;11.77;67.36
70127;BME280;57491;42.694;23.314;2023-04-26T04:38:18;94190.28;;;11.90;70.81
70127;BME280;57491;42.694;23.314;2023-04-26T04:40:48;94184.59;;;12.06;68.95
70127;BME280;57491;42.694;23.314;2023-04-26T04:43:16;94189.47;;;12.28;69.08
70127;BME280;57491;42.694;23.314;2023-04-26T04:45:44;94196.44;;;12.34;66.17
70127;BME280;57491;42.694;23.314;2023-04-26T04:48:12;94192.56;;;12.43;66.02
70127;BME280;57491;42.694;23.314;2023-04-26T04:50:39;94200.72;;;12.53;66.20
70127;BME280;57491;42.694;23.314;2023-04-26T04:53:07;94193.50;;;12.55;65.15
70127;BME280;57491;42.694;23.314;2023-04-26T04:55:34;94194.16;;;12.44;64.47
70127;BME280;57491;42.694;23.314;2023-04-26T04:58:04;94193.53;;;12.48;65.07
70127;BME280;57491;42.694;23.314;2023-04-26T05:00:31;94195.09;;;12.56;64.84
70127;BME280;57491;42.694;23.314;2023-04-26T05:02:59;94193.06;;;12.58;64.59
70127;BME280;57491;42.694;23.314;2023-04-26T05:05:26;94184.97;;;12.66;64.06
70127;BME280;57491;42.694;23.314;2023-04-26T05:07:54;94180.19;;;12.63;63.74
70127;BME280;57491;42.694;23.314;2023-04-26T05:10:22;94197.00;;;12.67;64.56
70127;BME280;57491;42.694;23.314;2023-04-26T05:12:49;94191.22;;;12.65;64.30
70127;BME280;57491;42.694;23.314;2023-04-26T05:15:18;94194.91;;;12.76;63.73
70127;BME280;57491;42.694;23.314;2023-04-26T05:17:45;94192.56;;;12.92;65.36
70127;BME280;57491;42.694;23.314;2023-04-26T05:20:14;94190.28;;;13.03;63.29
70127;BME280;57491;42.694;23.314;2023-04-26T05:22:41;94195.84;;;13.13;64.65
70127;BME280;57491;42.694;23.314;2023-04-26T05:25:09;94186.25;;;13.25;63.71
70127;BME280;57491;42.694;23.314;2023-04-26T05:27:38;94193.09;;;13.44;62.59
70127;BME280;57491;42.694;23.314;2023-04-26T05:30:07;94201.13;;;13.61;61.77
70127;BME280;57491;42.694;23.314;2023-04-26T05:32:36;94202.03;;;13.73;61.36
70127;BME280;57491;42.694;23.314;2023-04-26T05:35:07;94204.25;;;13.88;61.37
70127;BME280;57491;42.694;23.314;2023-04-26T05:37:35;94201.09;;;13.97;61.41
70127;BME280;57491;42.694;23.314;2023-04-26T05:40:05;94204.28;;;14.17;60.46
70127;BME280;57491;42.694;23.314;2023-04-26T05:42:33;94209.75;;;14.27;58.48
70127;BME280;57491;42.694;23.314;2023-04-26T05:45:01;94209.66;;;14.34;58.42
70127;BME280;57491;42.694;23.314;2023-04-26T05:47:29;94215.28;;;14.38;58.43
70127;BME280;57491;42.694;23.314;2023-04-26T05:49:58;94213.25;;;14.40;58.82
70127;BME280;57491;42.694;23.314;2023-04-26T05:52:25;94201.69;;;14.29;58.71
70127;BME280;57491;42.694;23.314;2023-04-26T05:54:53;94223.84;;;14.45;57.39
70127;BME280;57491;42.694;23.314;2023-04-26T05:57:20;94210.66;;;14.51;58.72
70127;BME280;57491;42.694;23.314;2023-04-26T05:59:47;94218.63;;;14.68;58.16
70127;BME280;57491;42.694;23.314;2023-04-26T06:02:15;94213.31;;;14.74;57.94
70127;BME280;57491;42.694;23.314;2023-04-26T06:04:42;94216.41;;;14.83;57.86
70127;BME280;57491;42.694;23.314;2023-04-26T06:07:11;94224.50;;;14.93;57.40
70127;BME280;57491;42.694;23.314;2023-04-26T06:09:42;94220.63;;;14.84;58.01
70127;BME280;57491;42.694;23.314;2023-04-26T06:12:10;94226.41;;;14.86;58.10
70127;BME280;57491;42.694;23.314;2023-04-26T06:14:37;94222.09;;;14.92;57.88
70127;BME280;57491;42.694;23.314;2023-04-26T06:17:05;94222.00;;;14.98;57.79
70127;BME280;57491;42.694;23.314;2023-04-26T06:19:32;94221.91;;;15.28;56.87
70127;BME280;57491;42.694;23.314;2023-04-26T06:21:59;94221.00;;;15.34;56.66
70127;BME280;57491;42.694;23.314;2023-04-26T06:24:29;94226.13;;;15.52;58.21
70127;BME280;57491;42.694;23.314;2023-04-26T06:26:56;94223.50;;;15.76;56.36
70127;BME280;57491;42.694;23.314;2023-04-26T06:29:23;94201.56;;;15.93;55.47
70127;BME280;57491;42.694;23.314;2023-04-26T06:31:51;94207.75;;;16.16;54.76
70127;BME280;57491;42.694;23.314;2023-04-26T06:34:21;94218.09;;;16.50;53.16
70127;BME280;57491;42.694;23.314;2023-04-26T06:36:48;94218.72;;;16.69;51.91
70127;BME280;57491;42.694;23.314;2023-04-26T06:39:15;94217.91;;;16.69;51.36
70127;BME280;57491;42.694;23.314;2023-04-26T06:41:47;94195.56;;;16.38;50.60
70127;BME280;57491;42.694;23.314;2023-04-26T06:44:14;94212.66;;;16.12;48.89
70127;BME280;57491;42.694;23.314;2023-04-26T06:46:42;94197.53;;;15.51;47.77
70127;BME280;57491;42.694;23.314;2023-04-26T06:49:09;94223.94;;;15.49;49.31
70127;BME280;57491;42.694;23.314;2023-04-26T06:51:37;94229.56;;;15.53;48.95
70127;BME280;57491;42.694;23.314;2023-04-26T06:54:04;94215.50;;;15.47;49.52
70127;BME280;57491;42.694;23.314;2023-04-26T06:56:32;94227.25;;;15.68;50.03
70127;BME280;57491;42.694;23.314;2023-04-26T06:59:02;94211.91;;;16.00;48.82
70127;BME280;57491;42.694;23.314;2023-04-26T07:01:30;94228.13;;;16.25;49.78
70127;BME280;57491;42.694;23.314;2023-04-26T07:03:59;94221.28;;;16.24;48.60
70127;BME280;57491;42.694;23.314;2023-04-26T07:06:28;94226.50;;;16.52;48.99
70127;BME280;57491;42.694;23.314;2023-04-26T07:08:57;94226.81;;;16.68;48.52
70127;BME280;57491;42.694;23.314;2023-04-26T07:11:24;94231.63;;;17.04;49.43
70127;BME280;57491;42.694;23.314;2023-04-26T07:13:51;94211.88;;;17.18;46.93
70127;BME280;57491;42.694;23.314;2023-04-26T07:16:20;94230.63;;;17.44;46.31
70127;BME280;57491;42.694;23.314;2023-04-26T07:18:47;94219.34;;;17.26;45.31
70127;BME280;57491;42.694;23.314;2023-04-26T07:21:15;94209.00;;;17.03;46.27
70127;BME280;57491;42.694;23.314;2023-04-26T07:23:43;94221.75;;;17.28;47.38
70127;BME280;57491;42.694;23.314;2023-04-26T07:26:10;94226.19;;;17.27;45.45
70127;BME280;57491;42.694;23.314;2023-04-26T07:28:37;94235.44;;;17.13;44.25
70127;BME280;57491;42.694;23.314;2023-04-26T07:31:05;94229.63;;;17.11;44.58
70127;BME280;57491;42.694;23.314;2023-04-26T07:33:33;94227.97;;;17.05;44.95
70127;BME280;57491;42.694;23.314;2023-04-26T07:36:00;94226.50;;;16.81;44.84
70127;BME280;57491;42.694;23.314;2023-04-26T07:38:28;94237.56;;;16.26;45.85
70127;BME280;57491;42.694;23.314;2023-04-26T07:40:55;94239.63;;;15.96;45.50
70127;BME280;57491;42.694;23.314;2023-04-26T07:43:23;94237.06;;;15.61;47.81
70127;BME280;57491;42.694;23.314;2023-04-26T07:45:50;94249.69;;;15.29;47.62
70127;BME280;57491;42.694;23.314;2023-04-26T07:48:17;94255.38;;;15.49;48.16
70127;BME280;57491;42.694;23.314;2023-04-26T07:50:46;94245.69;;;15.38;45.51
70127;BME280;57491;42.694;23.314;2023-04-26T07:53:13;94252.19;;;15.59;47.56
70127;BME280;57491;42.694;23.314;2023-04-26T07:55:40;94253.44;;;15.80;46.34
70127;BME280;57491;42.694;23.314;2023-04-26T07:58:07;94261.31;;;15.68;45.17
70127;BME280;57491;42.694;23.314;2023-04-26T08:00:39;94256.16;;;15.50;45.78
70127;BME280;57491;42.694;23.314;2023-04-26T08:03:06;94256.09;;;15.56;45.71
70127;BME280;57491;42.694;23.314;2023-04-26T08:05:33;94258.91;;;15.78;45.03
70127;BME280;57491;42.694;23.314;2023-04-26T08:08:03;94247.44;;;16.07;44.65
70127;BME280;57491;42.694;23.314;2023-04-26T08:10:30;94254.88;;;15.99;44.45
70127;BME280;57491;42.694;23.314;2023-04-26T08:12:57;94255.94;;;16.26;44.86
70127;BME280;57491;42.694;23.314;2023-04-26T08:15:28;94253.56;;;16.25;44.48
70127;BME280;57491;42.694;23.314;2023-04-26T08:17:57;94256.50;;;16.28;44.34
70127;BME280;57491;42.694;23.314;2023-04-26T08:20:25;94243.78;;;16.08;44.63
70127;BME280;57491;42.694;23.314;2023-04-26T08:22:54;94250.81;;;16.60;45.10
70127;BME280;57491;42.694;23.314;2023-04-26T08:25:24;94250.56;;;17.06;43.05
70127;BME280;57491;42.694;23.314;2023-04-26T08:27:51;94249.31;;;17.47;43.20
70127;BME280;57491;42.694;23.314;2023-04-26T08:30:19;94246.38;;;17.77;42.64
70127;BME280;57491;42.694;23.314;2023-04-26T08:32:46;94245.78;;;17.92;41.19
70127;BME280;57491;42.694;23.314;2023-04-26T08:35:13;94245.34;;;17.61;41.32
70127;BME280;57491;42.694;23.314;2023-04-26T08:37:41;94249.28;;;17.59;41.54
70127;BME280;57491;42.694;23.314;2023-04-26T08:40:08;94239.38;;;17.66;41.34
70127;BME280;57491;42.694;23.314;2023-04-26T08:42:39;94241.78;;;17.67;40.81
70127;BME280;57491;42.694;23.314;2023-04-26T08:45:09;94247.59;;;17.69;40.83
70127;BME280;57491;42.694;23.314;2023-04-26T08:47:41;94245.22;;;17.34;41.66
70127;BME280;57491;42.694;23.314;2023-04-26T08:50:10;94249.91;;;17.16;42.16
70127;BME280;57491;42.694;23.314;2023-04-26T08:52:40;94246.25;;;17.00;41.87
70127;BME280;57491;42.694;23.314;2023-04-26T08:55:10;94254.53;;;16.92;41.73
70127;BME280;57491;42.694;23.314;2023-04-26T08:57:41;94249.59;;;16.79;42.12
70127;BME280;57491;42.694;23.314;2023-04-26T09:00:09;94248.00;;;16.78;42.01
70127;BME280;57491;42.694;23.314;2023-04-26T09:02:39;94254.44;;;16.87;41.30
70127;BME280;57491;42.694;23.314;2023-04-26T09:05:08;94252.50;;;16.66;42.54
70127;BME280;57491;42.694;23.314;2023-04-26T09:07:40;94264.38;;;16.57;42.18
70127;BME280;57491;42.694;23.314;2023-04-26T09:10:09;94261.81;;;16.45;42.67
70127;BME280;57491;42.694;23.314;2023-04-26T09:12:37;94250.53;;;16.73;42.93
70127;BME280;57491;42.694;23.314;2023-04-26T09:15:07;94250.88;;;16.93;43.16
70127;BME280;57491;42.694;23.314;2023-04-26T09:17:35;94253.88;;;17.52;41.74
70127;BME280;57491;42.694;23.314;2023-04-26T09:20:17;94247.78;;;17.84;40.20
70127;BME280;57491;42.694;23.314;2023-04-26T09:22:45;94252.50;;;18.04;40.19
70127;BME280;57491;42.694;23.314;2023-04-26T09:25:15;94262.91;;;17.94;39.76
70127;BME280;57491;42.694;23.314;2023-04-26T09:27:43;94256.84;;;18.15;39.15
70127;BME280;57491;42.694;23.314;2023-04-26T09:30:12;94256.66;;;18.22;38.85
70127;BME280;57491;42.694;23.314;2023-04-26T09:32:58;94256.19;;;18.03;38.77
70127;BME280;57491;42.694;23.314;2023-04-26T09:35:28;94249.31;;;18.24;38.04
70127;BME280;57491;42.694;23.314;2023-04-26T09:37:58;94249.59;;;18.49;37.92
70127;BME280;57491;42.694;23.314;2023-04-26T09:40:27;94253.81;;;18.72;38.27
70127;BME280;57491;42.694;23.314;2023-04-26T09:42:59;94256.78;;;19.07;37.92
70127;BME280;57491;42.694;23.314;2023-04-26T09:45:30;94254.84;;;19.30;36.53
70127;BME280;57491;42.694;23.314;2023-04-26T09:48:15;94244.28;;;19.62;35.51
70127;BME280;57491;42.694;23.314;2023-04-26T09:50:44;94235.03;;;19.59;36.10
70127;BME280;57491;42.694;23.314;2023-04-26T09:53:24;94237.88;;;19.94;36.29
70127;BME280;57491;42.694;23.314;2023-04-26T09:55:53;94246.66;;;20.15;34.30
70127;BME280;57491;42.694;23.314;2023-04-26T09:58:20;94242.25;;;20.31;33.89
70127;BME280;57491;42.694;23.314;2023-04-26T10:00:50;94237.34;;;20.60;33.26
70127;BME280;57491;42.694;23.314;2023-04-26T10:03:18;94250.38;;;20.19;32.81
70127;BME280;57491;42.694;23.314;2023-04-26T10:05:46;94231.13;;;20.24;33.62
70127;BME280;57491;42.694;23.314;2023-04-26T10:08:14;94235.78;;;20.74;32.79
70127;BME280;57491;42.694;23.314;2023-04-26T10:10:41;94233.16;;;21.04;31.79
70127;BME280;57491;42.694;23.314;2023-04-26T10:13:10;94231.31;;;21.00;31.05
70127;BME280;57491;42.694;23.314;2023-04-26T10:15:38;94236.75;;;20.42;31.77
70127;BME280;57491;42.694;23.314;2023-04-26T10:18:08;94222.78;;;20.47;31.95
70127;BME280;57491;42.694;23.314;2023-04-26T10:20:39;94242.44;;;19.62;31.65
70127;BME280;57491;42.694;23.314;2023-04-26T10:23:15;94241.44;;;18.99;33.04
70127;BME280;57491;42.694;23.314;2023-04-26T10:25:46;94232.69;;;18.67;33.92
70127;BME280;57491;42.694;23.314;2023-04-26T10:28:13;94222.25;;;18.28;34.28
70127;BME280;57491;42.694;23.314;2023-04-26T10:30:53;94222.47;;;18.00;35.62
70127;BME280;57491;42.694;23.314;2023-04-26T10:33:23;94226.00;;;18.11;35.68
70127;BME280;57491;42.694;23.314;2023-04-26T10:36:06;94227.84;;;18.32;34.76
70127;BME280;57491;42.694;23.314;2023-04-26T10:38:35;94239.06;;;18.49;35.76
70127;BME280;57491;42.694;23.314;2023-04-26T10:41:36;94228.97;;;18.90;32.74
70127;BME280;57491;42.694;23.314;2023-04-26T10:44:38;94223.38;;;19.13;33.06
70127;BME280;57491;42.694;23.314;2023-04-26T10:47:06;94222.50;;;19.86;33.93
70127;BME280;57491;42.694;23.314;2023-04-26T10:49:47;94231.22;;;20.39;31.46
70127;BME280;57491;42.694;23.314;2023-04-26T10:52:15;94218.69;;;20.14;30.58
70127;BME280;57491;42.694;23.314;2023-04-26T10:54:45;94220.09;;;19.75;31.64
70127;BME280;57491;42.694;23.314;2023-04-26T10:57:13;94213.81;;;19.86;33.90
70127;BME280;57491;42.694;23.314;2023-04-26T11:00:15;94221.75;;;19.91;31.46
70127;BME280;57491;42.694;23.314;2023-04-26T11:02:44;94217.69;;;19.73;31.96
70127;BME280;57491;42.694;23.314;2023-04-26T11:05:32;94214.13;;;19.94;33.91
70127;BME280;57491;42.694;23.314;2023-04-26T11:08:06;94226.56;;;19.99;30.43
70127;BME280;57491;42.694;23.314;2023-04-26T11:10:36;94222.69;;;19.70;29.81
70127;BME280;57491;42.694;23.314;2023-04-26T11:13:03;94223.41;;;19.55;30.74
70127;BME280;57491;42.694;23.314;2023-04-26T11:15:31;94226.06;;;19.60;30.65
70127;BME280;57491;42.694;23.314;2023-04-26T11:18:01;94214.16;;;20.04;30.66
70127;BME280;57491;42.694;23.314;2023-04-26T11:20:30;94215.38;;;20.39;29.96
70127;BME280;57491;42.694;23.314;2023-04-26T11:22:58;94211.75;;;20.80;29.84
70127;BME280;57491;42.694;23.314;2023-04-26T11:25:26;94211.28;;;20.06;30.09
70127;BME280;57491;42.694;23.314;2023-04-26T11:27:58;94215.84;;;20.26;30.17
70127;BME280;57491;42.694;23.314;2023-04-26T11:30:27;94224.03;;;19.67;33.26
70127;BME280;57491;42.694;23.314;2023-04-26T11:32:55;94216.63;;;19.69;30.85
70127;BME280;57491;42.694;23.314;2023-04-26T11:35:22;94216.44;;;19.81;30.61
70127;BME280;57491;42.694;23.314;2023-04-26T11:37:51;94225.13;;;19.81;30.41
70127;BME280;57491;42.694;23.314;2023-04-26T11:40:18;94218.78;;;19.35;31.02
70127;BME280;57491;42.694;23.314;2023-04-26T11:42:46;94228.41;;;19.20;30.83
70127;BME280;57491;42.694;23.314;2023-04-26T11:45:16;94224.56;;;19.00;31.01
70127;BME280;57491;42.694;23.314;2023-04-26T11:47:44;94224.69;;;19.15;31.15
70127;BME280;57491;42.694;23.314;2023-04-26T11:50:12;94222.34;;;19.19;30.76
70127;BME280;57491;42.694;23.314;2023-04-26T11:52:40;94213.19;;;19.27;31.01
70127;BME280;57491;42.694;23.314;2023-04-26T11:55:09;94222.50;;;19.81;30.03
70127;BME280;57491;42.694;23.314;2023-04-26T11:57:36;94207.19;;;20.30;29.46
70127;BME280;57491;42.694;23.314;2023-04-26T12:00:08;94205.91;;;20.53;28.77
70127;BME280;57491;42.694;23.314;2023-04-26T12:02:36;94204.88;;;20.74;29.79
70127;BME280;57491;42.694;23.314;2023-04-26T12:05:04;94207.28;;;21.21;28.54
70127;BME280;57491;42.694;23.314;2023-04-26T12:07:35;94206.97;;;21.63;28.16
70127;BME280;57491;42.694;23.314;2023-04-26T12:10:18;94210.72;;;21.32;28.17
70127;BME280;57491;42.694;23.314;2023-04-26T12:12:49;94207.81;;;20.93;27.97
70127;BME280;57491;42.694;23.314;2023-04-26T12:15:17;94204.88;;;20.69;29.26
70127;BME280;57491;42.694;23.314;2023-04-26T12:17:54;94206.50;;;21.11;29.31
70127;BME280;57491;42.694;23.314;2023-04-26T12:20:26;94205.16;;;21.08;28.84
70127;BME280;57491;42.694;23.314;2023-04-26T12:23:02;94194.06;;;20.96;29.04
70127;BME280;57491;42.694;23.314;2023-04-26T12:25:32;94195.41;;;20.93;28.68
70127;BME280;57491;42.694;23.314;2023-04-26T12:27:59;94198.81;;;20.89;28.61
70127;BME280;57491;42.694;23.314;2023-04-26T12:30:27;94200.63;;;20.58;30.69
70127;BME280;57491;42.694;23.314;2023-04-26T12:32:55;94209.00;;;20.30;29.56
70127;BME280;57491;42.694;23.314;2023-04-26T12:35:22;94207.78;;;19.95;29.47
70127;BME280;57491;42.694;23.314;2023-04-26T12:37:50;94200.22;;;19.57;30.23
70127;BME280;57491;42.694;23.314;2023-04-26T12:40:18;94203.72;;;19.31;31.08
70127;BME280;57491;42.694;23.314;2023-04-26T12:42:47;94191.75;;;19.13;31.36
70127;BME280;57491;42.694;23.314;2023-04-26T12:45:15;94198.59;;;18.55;31.92
70127;BME280;57491;42.694;23.314;2023-04-26T12:47:43;94188.94;;;18.61;32.39
70127;BME280;57491;42.694;23.314;2023-04-26T12:50:10;94208.72;;;18.63;32.22
70127;BME280;57491;42.694;23.314;2023-04-26T12:52:38;94199.78;;;18.43;32.69
70127;BME280;57491;42.694;23.314;2023-04-26T12:55:06;94202.59;;;18.09;32.37
70127;BME280;57491;42.694;23.314;2023-04-26T12:57:35;94187.00;;;17.81;32.30
70127;BME280;57491;42.694;23.314;2023-04-26T13:00:04;94203.56;;;18.03;32.29
70127;BME280;57491;42.694;23.314;2023-04-26T13:02:32;94195.28;;;17.51;33.02